Flight Track Log - Related Links

Times and Time Zones

All times are in EDT time to prevent confusion due to time zone crossing. See the AWE1287 flight status page for this flight to view local times or setup timezone preferences in your user account.

Time Position Orientation Groundspeed Altitude Reporting Facility
EDT Latitude Longitude Course Direction KTS MPH feet Rate Location/Type
Tue 08:48:49 PM 35.1950 -80.9356 72° East 154 177 1,700  Level Atlanta Center
Tue 08:50:09 PM 35.1339 -80.9100 161° South 213 245 4,200 2,082 Climbing Atlanta Center
Tue 08:51:00 PM 35.1204 -80.6197 29° Northeast  Level FlightAware Approximate
Tue 08:51:16 PM 35.0944 -80.8428 126° Southeast 267 307 6,800  Level Atlanta Center
Tue 08:52:00 PM 35.2196 -80.5527 30° Northeast  Level FlightAware Approximate
Tue 08:52:32 PM 35.1358 -80.7422 63° Northeast 300 345 8,300  Level Atlanta Center
Tue 08:53:00 PM 35.3167 -80.4822 90° East  Level FlightAware Approximate
Tue 08:53:32 PM 35.1772 -80.6592 59° Northeast 289 333 11,300  Level Atlanta Center
Tue 08:54:00 PM 35.3592 -80.3687 72° East  Level FlightAware Approximate
Tue 08:54:32 PM 35.2228 -80.5683 58° Northeast 303 349 13,600  Level Atlanta Center
Tue 08:55:32 PM 35.2800 -80.4542 58° Northeast 330 380 14,700 1,600 Climbing Atlanta Center
Tue 08:56:32 PM 35.3389 -80.3344 59° Northeast 380 437 16,800 2,150 Climbing Atlanta Center
Tue 08:57:32 PM 35.3981 -80.2169 58° Northeast 403 464 19,000 1,709 Climbing Atlanta Center
Tue 08:59:10 PM 35.4700 -79.9939 68° East 427 491 21,300 1,358 Climbing Washington Center
Tue 09:00:11 PM 35.5108 -79.8481 71° East 439 505 22,600 836 Climbing Washington Center
Tue 09:01:12 PM 35.5472 -79.6969 73° East 445 512 23,000 446 Climbing Washington Center
Tue 09:02:12 PM 35.5856 -79.5508 72° East 470 541 23,500 1,068 Climbing Washington Center
Tue 09:03:10 PM 35.6328 -79.3869 70° East 476 548 25,100 1,261 Climbing Washington Center
Tue 09:04:11 PM 35.6936 -79.2392 63° Northeast 471 542 26,000 1,377 Climbing Washington Center
Tue 09:05:12 PM 35.7544 -79.0883 64° Northeast 476 548 27,900 2,017 Climbing Washington Center
Tue 09:06:10 PM 35.8025 -78.9392 68° East 476 548 30,000 2,250 Climbing Washington Center
Tue 09:07:12 PM 35.8381 -78.7897 74° East 464 534 32,400 2,083 Climbing Washington Center
Tue 09:08:11 PM 35.8792 -78.6453 71° East 454 522 34,200 1,900 Climbing Washington Center
Tue 09:09:12 PM 35.9650 -78.5508 42° Northeast 422 486 36,200 1,412 Climbing Washington Center
Tue 09:10:10 PM 36.0714 -78.5550 358° North 354 407 37,000 400 Climbing Washington Center
Tue 09:11:12 PM 36.1719 -78.6231 331° Northwest 342 394 37,000  Level Washington Center
Tue 09:12:10 PM 36.2683 -78.6936 329° Northwest 372 428 37,000  Level Washington Center
Tue 09:13:10 PM 36.3664 -78.7647 330° Northwest 386 444 37,000  Level Washington Center
Tue 09:14:10 PM 36.4694 -78.8153 338° Northwest 397 457 37,000  Level Washington Center
Tue 09:15:10 PM 36.5769 -78.7733 17° North 375 432 37,000  Level Washington Center
Tue 09:16:11 PM 36.6450 -78.6492 56° Northeast 364 419 37,000  Level Washington Center
Tue 09:17:11 PM 36.6981 -78.5294 61° Northeast 387 445 37,000  Level Washington Center
Tue 09:18:10 PM 36.7594 -78.4022 59° Northeast 402 463 37,000  Level Washington Center
Tue 09:19:11 PM 36.8147 -78.2719 62° Northeast 414 476 37,000  Level Washington Center
Tue 09:20:11 PM 36.8806 -78.1236 61° Northeast 431 496 37,000  Level Washington Center
Tue 09:21:12 PM 36.9372 -77.9931 61° Northeast 426 490 37,000  Level Washington Center
Tue 09:22:10 PM 36.9961 -77.8647 60° Northeast 426 490 37,000  Level Washington Center
Tue 09:23:12 PM 37.0550 -77.7336 61° Northeast 426 490 37,000  Level Washington Center
Tue 09:24:12 PM 37.1278 -77.6211 51° Northeast 426 490 37,000  Level Washington Center
Tue 09:25:12 PM 37.2147 -77.5322 39° Northeast 407 468 37,000  Level Washington Center
Tue 09:26:11 PM 37.3039 -77.4403 39° Northeast 407 468 37,000  Level Washington Center
Tue 09:27:11 PM 37.3928 -77.3511 39° Northeast 407 468 37,000  Level Washington Center
Tue 09:28:09 PM 37.4839 -77.2564 40° Northeast 407 468 37,000  Level Washington Center
Tue 09:29:10 PM 37.5728 -77.1614 40° Northeast 407 468 37,000  Level Washington Center
Tue 09:30:11 PM 37.6447 -77.0867 39° Northeast 412 474 37,000  Level Washington Center
Tue 09:31:12 PM 37.7417 -76.9836 40° Northeast 412 474 37,000  Level Washington Center
Tue 09:32:10 PM 37.8303 -76.8933 39° Northeast 412 474 37,000  Level Washington Center
Tue 09:33:10 PM 37.9336 -76.7922 38° Northeast 412 474 37,000  Level Washington Center
Tue 09:34:11 PM 38.0264 -76.7017 38° Northeast 417 480 37,000  Level Washington Center
Tue 09:35:11 PM 38.1167 -76.6106 38° Northeast 417 480 37,000  Level Washington Center
Tue 09:36:10 PM 38.2114 -76.5192 37° Northeast 417 480 37,000  Level Washington Center
Tue 09:37:10 PM 38.3017 -76.4278 38° Northeast 417 480 37,000 -50 Level Washington Center
Tue 09:38:11 PM 38.3836 -76.3492 37° Northeast 417 480 36,900 -645 Descending Washington Center
Tue 09:39:11 PM 38.4758 -76.2572 38° Northeast 417 480 35,700 -2,430 Descending Washington Center
Tue 09:40:12 PM 38.5681 -76.1678 37° Northeast 417 480 32,000 -3,000 Descending Washington Center
Tue 09:41:13 PM 38.6706 -76.0675 37° Northeast 429 494 29,600 -2,339 Descending Washington Center
Tue 09:42:10 PM 38.7667 -75.9697 38° Northeast 439 505 27,400 -1,373 Descending Washington Center
Tue 09:43:11 PM 38.8608 -75.8742 38° Northeast 439 505 26,900 -197 Descending Washington Center
Tue 09:44:12 PM 38.9569 -75.7786 38° Northeast 439 505 27,000 50 Climbing Washington Center
Tue 09:45:10 PM 39.0550 -75.6853 36° Northeast 439 505 27,000 -51 Level Washington Center
Tue 09:46:10 PM 39.1531 -75.5942 36° Northeast 439 505 26,900 -49 Descending Washington Center
Tue 09:47:12 PM 39.2550 -75.4978 36° Northeast 439 505 26,900 -780 Level Washington Center
Tue 09:48:13 PM 39.3569 -75.4064 35° Northeast 444 511 25,300 -1,983 Descending Washington Center
Tue 09:49:10 PM 39.4569 -75.3175 34° Northeast 444 511 23,000 -2,237 Descending Washington Center
Tue 09:50:11 PM 39.5525 -75.2308 35° Northeast 433 498 20,900 -2,132 Descending Washington Center
Tue 09:51:11 PM 39.6544 -75.1361 36° Northeast 414 476 18,700 -1,966 Descending Washington Center
Tue 09:52:10 PM 39.7436 -75.0572 34° Northeast 400 460 17,000 -1,835 Descending Washington Center
Tue 09:53:12 PM 39.8328 -74.9808 33° Northeast 393 452 15,000 -1,793 Descending Washington Center
Tue 09:54:54 PM 39.9667 -74.8333 40° Northeast 369 425 12,100 -1,481 Descending New York TRACON
Tue 09:55:54 PM 40.0333 -74.7333 49° Northeast 359 413 11,000 -1,000 Descending New York TRACON
Tue 09:56:54 PM 40.1000 -74.6333 49° Northeast 351 404 10,100 -429 Descending New York TRACON
Tue 09:58:00 PM 40.1833 -74.5333 42° Northeast 351 404 10,100  Level New York TRACON
Tue 09:59:00 PM 40.2500 -74.4333 49° Northeast 351 404 10,100 -50 Level New York TRACON
Tue 10:00:00 PM 40.3167 -74.3500 44° Northeast 351 404 10,000 -400 Descending New York TRACON
Tue 10:01:00 PM 40.3833 -74.2667 44° Northeast 318 366 9,300 -1,000 Descending New York TRACON
Tue 10:01:54 PM 40.4333 -74.2000 45° Northeast 289 333 8,100 -1,500 Descending New York TRACON
Tue 10:03:00 PM 40.5000 -74.1167 44° Northeast 287 330 6,300 -1,650 Descending New York TRACON
Tue 10:03:54 PM 40.5667 -74.0833 21° North 280 322 4,800 -1,158 Descending New York TRACON
Tue 10:04:54 PM 40.6333 -74.0500 21° North 282 325 4,100 -350 Descending New York TRACON
Tue 10:05:54 PM 40.7167 -74.0333 North 280 322 4,100 -150 Level New York TRACON
Tue 10:06:54 PM 40.7833 -74.0000 21° North 281 323 3,800 -500 Descending New York TRACON
Tue 10:07:54 PM 40.8500 -73.9500 30° Northeast 281 323 3,100 -500 Descending New York TRACON
Tue 10:08:54 PM 40.8833 -73.8833 57° Northeast 223 257 2,800 -300 Descending New York TRACON

Login

Don't have an account? Register now (free) for customized features, flight alerts, and more!